createdAt,value
2022-09-18T00:02:12.571Z,15.43
2022-09-18T00:04:45.165Z,16.15
2022-09-18T00:07:16.286Z,15.10
2022-09-18T00:12:39.683Z,15.90
2022-09-18T00:15:11.955Z,14.55
2022-09-18T00:17:42.820Z,16.20
2022-09-18T00:20:14.311Z,15.55
2022-09-18T00:22:45.627Z,15.98
2022-09-18T00:25:37.571Z,18.55
2022-09-18T00:28:29.176Z,19.08
2022-09-18T00:31:22.652Z,19.00
2022-09-18T00:36:46.142Z,14.48
2022-09-18T00:39:17.662Z,15.80
2022-09-18T00:41:51.471Z,15.75
2022-09-18T00:44:37.428Z,16.50
2022-09-18T00:47:49.070Z,16.65
2022-09-18T00:50:25.749Z,16.33
2022-09-18T00:53:03.460Z,16.67
2022-09-18T00:55:39.817Z,16.27
2022-09-18T00:58:12.056Z,17.52
2022-09-18T01:00:43.542Z,14.68
2022-09-18T01:03:20.049Z,16.42
2022-09-18T01:06:49.114Z,16.98
2022-09-18T01:09:33.889Z,16.20
2022-09-18T01:12:20.299Z,17.23
2022-09-18T01:15:25.546Z,15.40
2022-09-18T01:18:24.230Z,16.35
2022-09-18T01:21:55.375Z,15.63
2022-09-18T01:24:52.406Z,16.05
2022-09-18T01:28:00.171Z,16.60
2022-09-18T01:30:56.415Z,15.75
2022-09-18T01:33:49.664Z,15.15
2022-09-18T01:36:32.278Z,16.13
2022-09-18T01:39:17.184Z,15.75
2022-09-18T01:41:53.346Z,15.63
2022-09-18T01:47:24.434Z,16.33
2022-09-18T01:52:58.464Z,15.18
2022-09-18T01:55:35.637Z,15.43
2022-09-18T01:58:12.406Z,15.15
2022-09-18T02:01:11.481Z,14.25
2022-09-18T02:03:52.483Z,15.57
2022-09-18T02:06:34.467Z,16.17
2022-09-18T02:09:17.931Z,15.77
2022-09-18T02:12:13.202Z,15.40
2022-09-18T02:17:58.310Z,17.08
2022-09-18T02:21:11.886Z,16.17
2022-09-18T02:23:44.790Z,15.35
2022-09-18T02:26:20.292Z,15.48
2022-09-18T02:28:54.522Z,15.57
2022-09-18T02:31:26.070Z,16.20
2022-09-18T02:33:57.205Z,15.55
2022-09-18T02:36:54.053Z,16.10
2022-09-18T02:42:49.620Z,15.07
2022-09-18T02:45:51.097Z,15.65
2022-09-18T02:48:43.909Z,15.27
2022-09-18T02:51:24.298Z,16.92
2022-09-18T02:54:01.596Z,17.60
2022-09-18T02:57:10.754Z,21.10
2022-09-18T02:59:49.613Z,25.08
2022-09-18T03:02:34.159Z,24.65
2022-09-18T03:08:07.808Z,21.75
2022-09-18T03:10:43.191Z,23.60
2022-09-18T03:13:14.382Z,21.07
2022-09-18T03:15:45.721Z,21.63
2022-09-18T03:18:16.966Z,21.23
2022-09-18T03:23:32.438Z,20.08
2022-09-18T03:26:20.384Z,19.63
2022-09-18T03:32:10.515Z,18.77
2022-09-18T03:34:49.847Z,18.80
2022-09-18T03:37:21.009Z,17.88
2022-09-18T03:39:53.097Z,18.25
2022-09-18T03:42:32.410Z,18.15
2022-09-18T03:45:26.177Z,18.80
2022-09-18T03:47:58.169Z,17.52
2022-09-18T03:50:57.518Z,17.20
2022-09-18T03:53:39.193Z,17.27
2022-09-18T03:56:41.604Z,17.15
2022-09-18T03:59:39.010Z,16.35
2022-09-18T04:02:48.694Z,17.80
2022-09-18T04:05:56.315Z,16.02
2022-09-18T04:09:12.736Z,17.50
2022-09-18T04:11:54.042Z,16.95
2022-09-18T04:14:50.490Z,16.75
2022-09-18T04:18:01.007Z,16.48
2022-09-18T04:20:35.581Z,17.20
2022-09-18T04:23:33.134Z,16.95
2022-09-18T04:26:11.372Z,16.20
2022-09-18T04:29:13.328Z,16.88
2022-09-18T04:31:45.143Z,17.42
2022-09-18T04:37:10.114Z,14.77
2022-09-18T04:40:07.806Z,14.48
2022-09-18T04:42:40.960Z,15.45
2022-09-18T04:45:12.923Z,15.18
2022-09-18T04:47:46.037Z,15.77
2022-09-18T04:50:35.997Z,16.00
2022-09-18T04:53:27.244Z,15.45
2022-09-18T04:58:54.039Z,14.80
2022-09-18T05:02:20.503Z,15.38
2022-09-18T05:04:52.478Z,14.57
2022-09-18T05:07:54.650Z,15.48
2022-09-18T05:10:28.221Z,15.30
2022-09-18T05:16:25.701Z,14.88
2022-09-18T05:19:50.085Z,15.80
2022-09-18T05:22:28.820Z,15.98
2022-09-18T05:25:01.155Z,15.40
2022-09-18T05:27:58.159Z,14.68
2022-09-18T05:30:33.753Z,15.18
2022-09-18T05:33:11.600Z,14.85
2022-09-18T05:36:07.262Z,15.10
2022-09-18T05:39:01.107Z,14.82
2022-09-18T05:41:33.105Z,14.80
2022-09-18T05:44:08.139Z,14.98
2022-09-18T05:49:14.128Z,13.52
2022-09-18T05:52:25.278Z,15.30
2022-09-18T05:55:39.021Z,14.90
2022-09-18T05:58:42.350Z,14.98
2022-09-18T06:01:26.349Z,14.05
2022-09-18T06:04:20.919Z,14.07
2022-09-18T06:07:13.092Z,14.32
2022-09-18T06:09:46.325Z,15.27
2022-09-18T06:12:57.595Z,14.23
2022-09-18T06:15:49.982Z,14.98
2022-09-18T06:18:29.879Z,15.05
2022-09-18T06:21:25.787Z,13.57
2022-09-18T06:24:43.594Z,15.07
2022-09-18T06:27:22.025Z,14.73
2022-09-18T06:29:54.736Z,15.57
2022-09-18T06:32:58.488Z,14.90
2022-09-18T06:36:12.151Z,18.13
2022-09-18T06:38:58.452Z,16.38
2022-09-18T06:41:29.996Z,17.88
2022-09-18T06:44:01.475Z,15.95
2022-09-18T06:46:44.711Z,16.30
2022-09-18T06:49:54.477Z,16.02
2022-09-18T06:52:26.152Z,17.35
2022-09-18T06:55:01.361Z,17.10
2022-09-18T06:57:40.622Z,17.00
2022-09-18T07:00:45.457Z,16.38
2022-09-18T07:03:18.601Z,17.70
2022-09-18T07:06:18.848Z,17.45
2022-09-18T07:08:53.333Z,18.02
2022-09-18T07:11:37.716Z,17.13
2022-09-18T07:14:10.233Z,18.27
2022-09-18T07:16:42.231Z,18.02
2022-09-18T07:19:15.738Z,17.60
2022-09-18T07:21:52.320Z,17.15
2022-09-18T07:24:29.247Z,16.75
2022-09-18T07:27:01.009Z,16.88
2022-09-18T07:29:56.013Z,18.30
2022-09-18T07:32:58.846Z,19.10
2022-09-18T07:35:38.113Z,21.50
2022-09-18T07:38:12.873Z,20.23
2022-09-18T07:43:59.329Z,18.90
2022-09-18T07:46:30.985Z,19.55
2022-09-18T07:49:06.324Z,19.63
2022-09-18T07:52:03.519Z,18.88
2022-09-18T07:54:48.290Z,18.30
2022-09-18T07:57:57.703Z,17.10
2022-09-18T08:01:05.172Z,19.20
2022-09-18T08:03:41.978Z,19.60
2022-09-18T08:06:15.940Z,18.83
2022-09-18T08:09:05.458Z,17.98
2022-09-18T08:12:01.931Z,18.58
2022-09-18T08:15:15.624Z,17.65
2022-09-18T08:18:08.553Z,19.10
2022-09-18T08:21:01.130Z,18.70
2022-09-18T08:23:54.547Z,18.95
2022-09-18T08:26:25.978Z,18.45
2022-09-18T08:29:09.558Z,18.58
2022-09-18T08:32:10.075Z,17.58
2022-09-18T08:34:46.571Z,18.10
2022-09-18T08:37:27.911Z,19.13
2022-09-18T08:40:36.305Z,18.08
2022-09-18T08:43:58.015Z,19.23
2022-09-18T08:47:07.253Z,17.85
2022-09-18T08:50:13.344Z,17.13
2022-09-18T08:53:22.046Z,18.17
2022-09-18T08:56:23.795Z,17.60
2022-09-18T08:59:43.617Z,18.55
2022-09-18T09:02:43.723Z,17.65
2022-09-18T09:05:25.722Z,16.92
2022-09-18T09:07:59.753Z,17.95
2022-09-18T09:10:46.276Z,18.05
2022-09-18T09:13:39.958Z,17.27
2022-09-18T09:20:14.459Z,18.00
2022-09-18T09:23:06.998Z,18.08
2022-09-18T09:25:52.141Z,17.45
2022-09-18T09:29:11.776Z,18.38
2022-09-18T09:32:30.884Z,18.00
2022-09-18T09:35:33.880Z,18.63
2022-09-18T09:38:35.780Z,16.88
2022-09-18T09:41:19.968Z,17.33
2022-09-18T09:48:30.156Z,16.92
2022-09-18T09:51:24.205Z,16.95
2022-09-18T09:56:41.648Z,17.93
2022-09-18T09:59:48.791Z,16.83
2022-09-18T10:02:29.771Z,17.60
2022-09-18T10:05:32.682Z,17.42
2022-09-18T10:08:18.972Z,17.17
2022-09-18T10:11:12.833Z,16.95
2022-09-18T10:14:44.930Z,17.17
2022-09-18T10:17:25.489Z,16.60
2022-09-18T10:20:03.770Z,17.33
2022-09-18T10:22:43.818Z,18.00
2022-09-18T10:25:33.102Z,17.75
2022-09-18T10:28:08.755Z,18.52
2022-09-18T10:31:15.494Z,17.80
2022-09-18T10:34:00.649Z,17.38
2022-09-18T10:36:44.838Z,18.02
2022-09-18T10:39:32.627Z,17.60
2022-09-18T10:42:19.541Z,17.65
2022-09-18T10:49:25.811Z,16.77
2022-09-18T10:52:28.216Z,18.02
2022-09-18T10:55:10.952Z,17.17
2022-09-18T10:57:59.750Z,16.90
2022-09-18T11:00:35.420Z,17.52
2022-09-18T11:03:56.470Z,17.73
2022-09-18T11:06:34.356Z,16.70
2022-09-18T11:09:48.177Z,17.63
2022-09-18T11:12:24.243Z,18.95
2022-09-18T11:15:04.470Z,20.30
2022-09-18T11:17:59.187Z,20.15
2022-09-18T11:20:43.788Z,18.65
2022-09-18T11:23:31.729Z,18.92
2022-09-18T11:26:21.396Z,19.10
2022-09-18T11:29:27.198Z,19.35
2022-09-18T11:32:15.327Z,18.35
2022-09-18T11:35:00.209Z,18.88
2022-09-18T11:37:39.086Z,17.17
2022-09-18T11:40:24.921Z,17.88
2022-09-18T11:46:24.692Z,16.17
2022-09-18T11:49:31.560Z,17.85
2022-09-18T11:52:22.368Z,17.08
2022-09-18T11:55:16.455Z,17.02
2022-09-18T11:58:36.575Z,16.20
2022-09-18T12:01:28.846Z,16.83
2022-09-18T12:04:41.226Z,16.73
2022-09-18T12:07:39.466Z,15.75
2022-09-18T12:10:48.710Z,17.25
2022-09-18T12:13:49.528Z,16.55
2022-09-18T12:16:45.870Z,16.90
2022-09-18T12:19:23.375Z,16.35
2022-09-18T12:22:06.929Z,16.33
2022-09-18T12:24:39.388Z,17.02
2022-09-18T12:27:53.603Z,16.55
2022-09-18T12:31:26.989Z,15.43
2022-09-18T12:34:12.150Z,15.18
2022-09-18T12:37:17.438Z,15.38
2022-09-18T12:40:25.216Z,15.82
2022-09-18T12:43:12.141Z,15.55
2022-09-18T12:46:13.305Z,15.23
2022-09-18T12:49:06.096Z,15.45
2022-09-18T12:52:21.327Z,15.43
2022-09-18T12:55:16.825Z,15.57
2022-09-18T12:58:05.023Z,15.60
2022-09-18T13:00:39.305Z,14.93
2022-09-18T13:03:36.318Z,14.60
2022-09-18T13:06:15.469Z,15.40
2022-09-18T13:09:07.440Z,15.10
2022-09-18T13:11:53.936Z,14.60
2022-09-18T13:15:01.868Z,15.13
2022-09-18T13:17:46.881Z,15.73
2022-09-18T13:20:22.945Z,15.15
2022-09-18T13:23:18.203Z,15.07
2022-09-18T13:26:02.255Z,15.15
2022-09-18T13:28:42.285Z,15.13
2022-09-18T13:31:30.728Z,14.73
2022-09-18T13:34:08.922Z,15.07
2022-09-18T13:36:43.859Z,15.50
2022-09-18T13:39:23.312Z,14.55
2022-09-18T13:41:58.709Z,15.35
2022-09-18T13:44:33.816Z,14.73
2022-09-18T13:47:22.484Z,14.68
2022-09-18T13:49:58.791Z,14.82
2022-09-18T13:52:40.511Z,14.30
2022-09-18T13:55:15.561Z,13.32
2022-09-18T13:58:09.365Z,14.15
2022-09-18T14:00:43.373Z,14.55
2022-09-18T14:03:24.009Z,14.32
2022-09-18T14:05:58.562Z,13.07
2022-09-18T14:11:26.870Z,13.60
2022-09-18T14:14:00.670Z,14.30
2022-09-18T14:16:40.403Z,13.95
2022-09-18T14:19:30.336Z,14.02
2022-09-18T14:22:03.360Z,13.45
2022-09-18T14:25:01.519Z,13.60
2022-09-18T14:28:05.733Z,14.52
2022-09-18T14:30:37.349Z,13.80
2022-09-18T14:33:13.096Z,14.85
2022-09-18T14:36:18.270Z,14.40
2022-09-18T14:38:49.836Z,13.07
2022-09-18T14:41:31.114Z,13.43
2022-09-18T14:44:05.812Z,13.88
2022-09-18T14:47:04.790Z,13.20
2022-09-18T14:50:04.777Z,14.60
2022-09-18T14:53:10.959Z,13.65
2022-09-18T14:55:50.547Z,13.85
2022-09-18T14:58:33.537Z,14.57
2022-09-18T15:01:23.577Z,13.75
2022-09-18T15:06:55.300Z,14.18
2022-09-18T15:09:35.527Z,13.85
2022-09-18T15:12:29.400Z,13.45
2022-09-18T15:15:01.014Z,12.98
2022-09-18T15:17:55.432Z,13.27
2022-09-18T15:20:28.831Z,13.55
2022-09-18T15:23:25.242Z,14.25
2022-09-18T15:26:28.969Z,13.52
2022-09-18T15:29:39.524Z,13.38
2022-09-18T15:32:55.489Z,12.20
2022-09-18T15:35:54.876Z,12.55
2022-09-18T15:38:40.012Z,13.23
2022-09-18T15:42:00.971Z,11.80
2022-09-18T15:45:00.376Z,13.02
2022-09-18T15:47:39.166Z,12.52
2022-09-18T15:50:22.643Z,12.93
2022-09-18T15:53:00.292Z,12.67
2022-09-18T15:55:57.068Z,12.68
2022-09-18T15:58:56.911Z,13.77
2022-09-18T16:01:42.000Z,12.70
2022-09-18T16:04:34.777Z,13.02
2022-09-18T16:07:28.417Z,13.23
2022-09-18T16:10:03.136Z,13.18
2022-09-18T16:12:57.417Z,12.50
2022-09-18T16:15:29.175Z,12.00
2022-09-18T16:18:18.986Z,12.73
2022-09-18T16:20:54.082Z,12.93
2022-09-18T16:23:34.626Z,13.52
2022-09-18T16:26:43.037Z,14.00
2022-09-18T16:29:23.124Z,13.07
2022-09-18T16:31:55.821Z,12.48
2022-09-18T16:34:29.722Z,13.65
2022-09-18T16:37:02.056Z,13.30
2022-09-18T16:39:33.879Z,13.73
2022-09-18T16:42:40.080Z,12.15
2022-09-18T16:45:33.918Z,12.50
2022-09-18T16:48:09.385Z,12.85
2022-09-18T16:50:43.013Z,13.10
2022-09-18T16:53:14.647Z,12.75
2022-09-18T16:55:53.849Z,13.32
2022-09-18T16:58:27.561Z,12.77
2022-09-18T17:01:00.539Z,12.50
2022-09-18T17:03:33.063Z,12.43
2022-09-18T17:06:04.639Z,13.20
2022-09-18T17:08:36.005Z,12.93
2022-09-18T17:11:07.810Z,11.82
2022-09-18T17:13:38.975Z,12.20
2022-09-18T17:16:09.977Z,12.38
2022-09-18T17:18:41.021Z,12.82
2022-09-18T17:21:12.452Z,11.88
2022-09-18T17:23:43.510Z,13.95
2022-09-18T17:27:12.864Z,12.85
2022-09-18T17:29:43.771Z,11.85
2022-09-18T17:32:18.469Z,11.27
2022-09-18T17:35:09.511Z,12.82
2022-09-18T17:38:23.329Z,12.30
2022-09-18T17:41:01.860Z,11.50
2022-09-18T17:43:34.882Z,12.18
2022-09-18T17:46:11.245Z,13.00
2022-09-18T17:48:42.504Z,12.75
2022-09-18T17:51:35.124Z,11.43
2022-09-18T17:56:38.234Z,12.30
2022-09-18T17:59:12.750Z,12.35
2022-09-18T18:02:23.058Z,11.95
2022-09-18T18:05:35.603Z,12.00
2022-09-18T18:08:38.598Z,11.90
2022-09-18T18:11:34.722Z,12.68
2022-09-18T18:14:19.775Z,12.45
2022-09-18T18:17:37.386Z,11.10
2022-09-18T18:20:08.732Z,11.90
2022-09-18T18:22:46.896Z,12.00
2022-09-18T18:25:18.025Z,12.68
2022-09-18T18:27:53.048Z,12.85
2022-09-18T18:30:32.549Z,12.13
2022-09-18T18:33:07.079Z,12.10
2022-09-18T18:36:10.142Z,11.77
2022-09-18T18:38:42.166Z,11.60
2022-09-18T18:41:20.909Z,11.30
2022-09-18T18:44:16.139Z,12.43
2022-09-18T18:46:57.561Z,11.63
2022-09-18T18:49:49.644Z,11.85
2022-09-18T18:52:28.739Z,11.38
2022-09-18T18:55:24.304Z,11.82
2022-09-18T18:57:55.874Z,11.27
2022-09-18T19:00:48.468Z,11.07
2022-09-18T19:03:39.980Z,11.45
2022-09-18T19:06:53.509Z,11.43
2022-09-18T19:09:31.016Z,10.60
2022-09-18T19:12:30.829Z,11.35
2022-09-18T19:15:11.714Z,11.00
2022-09-18T19:17:51.733Z,11.70
2022-09-18T19:20:25.892Z,11.27
2022-09-18T19:23:00.196Z,11.43
2022-09-18T19:25:37.153Z,11.60
2022-09-18T19:28:09.035Z,11.93
2022-09-18T19:30:49.877Z,11.63
2022-09-18T19:33:22.368Z,10.73
2022-09-18T19:35:53.759Z,11.43
2022-09-18T19:38:45.979Z,11.85
2022-09-18T19:41:40.083Z,11.25
2022-09-18T19:44:42.128Z,12.00
2022-09-18T19:47:19.372Z,12.00
2022-09-18T19:49:53.710Z,11.23
2022-09-18T19:52:34.653Z,11.60
2022-09-18T19:55:28.728Z,10.15
2022-09-18T19:58:02.737Z,11.80
2022-09-18T20:00:47.344Z,11.35
2022-09-18T20:03:36.114Z,12.23
2022-09-18T20:06:28.203Z,10.20
2022-09-18T20:09:09.415Z,10.27
2022-09-18T20:11:53.088Z,11.55
2022-09-18T20:15:10.772Z,10.43
2022-09-18T20:18:17.022Z,9.88
2022-09-18T20:20:51.269Z,11.27
2022-09-18T20:23:25.869Z,11.02
2022-09-18T20:26:00.795Z,10.75
2022-09-18T20:28:44.613Z,11.38
2022-09-18T20:31:35.344Z,10.45
2022-09-18T20:34:08.107Z,11.20
2022-09-18T20:36:56.092Z,10.55
2022-09-18T20:39:50.842Z,9.90
2022-09-18T20:42:24.822Z,10.80
2022-09-18T20:45:30.779Z,11.15
2022-09-18T20:48:07.695Z,11.10
2022-09-18T20:50:55.144Z,11.00
2022-09-18T20:53:39.518Z,11.05
2022-09-18T20:56:33.736Z,10.52
2022-09-18T20:59:06.241Z,10.27
2022-09-18T21:02:01.780Z,10.23
2022-09-18T21:04:35.511Z,10.30
2022-09-18T21:07:10.105Z,10.68
2022-09-18T21:09:44.277Z,11.18
2022-09-18T21:12:40.529Z,11.10
2022-09-18T21:15:21.006Z,10.80
2022-09-18T21:17:55.053Z,10.13
2022-09-18T21:20:46.640Z,10.80
2022-09-18T21:23:35.722Z,10.95
2022-09-18T21:26:42.121Z,10.25
2022-09-18T21:29:31.192Z,9.95
2022-09-18T21:32:13.410Z,10.90
2022-09-18T21:34:53.976Z,9.52
2022-09-18T21:37:44.800Z,10.25
2022-09-18T21:40:43.077Z,10.18
2022-09-18T21:43:16.998Z,10.63
2022-09-18T21:45:49.512Z,10.35
2022-09-18T21:48:25.139Z,10.18
2022-09-18T21:50:56.368Z,10.73
2022-09-18T21:53:27.759Z,9.88
2022-09-18T21:56:07.224Z,11.50
2022-09-18T21:58:41.541Z,10.20
2022-09-18T22:01:24.500Z,11.48
2022-09-18T22:04:27.656Z,10.73
2022-09-18T22:07:03.686Z,10.05
2022-09-18T22:09:39.667Z,10.00
2022-09-18T22:12:11.433Z,10.23
2022-09-18T22:14:42.733Z,10.70
2022-09-18T22:17:19.530Z,10.00
2022-09-18T22:19:53.965Z,10.73
2022-09-18T22:22:28.467Z,9.90
2022-09-18T22:25:19.569Z,9.60
2022-09-18T22:28:06.461Z,9.95
2022-09-18T22:30:47.039Z,9.85
2022-09-18T22:33:17.902Z,9.85
2022-09-18T22:38:32.928Z,10.65
2022-09-18T22:41:08.758Z,9.95
2022-09-18T22:43:39.865Z,10.15
2022-09-18T22:46:13.613Z,10.60
2022-09-18T22:48:51.241Z,10.65
2022-09-18T22:51:26.798Z,10.43
2022-09-18T22:57:12.642Z,14.98
2022-09-18T22:59:43.773Z,15.15
2022-09-18T23:02:18.240Z,15.55
2022-09-18T23:05:07.767Z,17.58
2022-09-18T23:08:09.236Z,17.55
2022-09-18T23:10:40.745Z,16.05
2022-09-18T23:13:12.445Z,17.90
2022-09-18T23:15:54.668Z,16.48
2022-09-18T23:18:39.620Z,15.82
2022-09-18T23:21:16.391Z,15.55
2022-09-18T23:23:54.434Z,15.55
2022-09-18T23:26:36.013Z,15.23
2022-09-18T23:29:24.062Z,16.10
2022-09-18T23:31:59.298Z,14.52
2022-09-18T23:34:42.669Z,13.55
2022-09-18T23:37:13.943Z,15.07
2022-09-18T23:39:57.494Z,14.20
2022-09-18T23:42:43.939Z,14.85
2022-09-18T23:45:15.643Z,13.88
2022-09-18T23:47:52.765Z,13.45
2022-09-18T23:50:24.614Z,13.73
2022-09-18T23:52:56.210Z,14.07
2022-09-18T23:55:28.608Z,15.07
2022-09-18T23:58:00.657Z,14.13
